sensor_id;sensor_type;location;lat;lon;timestamp;temperature;humidity
37984;DHT22;64625;50.882;4.376;2023-04-25T01:13:40;9.60;99.90
37984;DHT22;64625;50.882;4.376;2023-04-25T01:16:06;9.60;99.90
37984;DHT22;64625;50.882;4.376;2023-04-25T01:18:32;9.60;99.90
37984;DHT22;64625;50.882;4.376;2023-04-25T01:21:07;9.50;99.90
37984;DHT22;64625;50.882;4.376;2023-04-25T01:23:33;9.50;99.90
37984;DHT22;64625;50.882;4.376;2023-04-25T01:26:00;9.50;99.90
37984;DHT22;64625;50.882;4.376;2023-04-25T01:28:27;9.50;99.90
37984;DHT22;64625;50.882;4.376;2023-04-25T01:30:53;9.50;99.90
37984;DHT22;64625;50.882;4.376;2023-04-25T01:33:19;9.50;99.90
37984;DHT22;64625;50.882;4.376;2023-04-25T01:35:46;9.50;99.90
37984;DHT22;64625;50.882;4.376;2023-04-25T01:38:14;9.50;99.90
37984;DHT22;64625;50.882;4.376;2023-04-25T01:40:41;9.40;99.90
37984;DHT22;64625;50.882;4.376;2023-04-25T01:43:07;9.40;99.90
37984;DHT22;64625;50.882;4.376;2023-04-25T01:45:42;9.40;99.90
37984;DHT22;64625;50.882;4.376;2023-04-25T01:48:12;9.40;99.90
37984;DHT22;64625;50.882;4.376;2023-04-25T01:50:40;9.40;99.90
37984;DHT22;64625;50.882;4.376;2023-04-25T01:53:06;9.30;99.90
37984;DHT22;64625;50.882;4.376;2023-04-25T01:55:32;9.30;99.90
37984;DHT22;64625;50.882;4.376;2023-04-25T01:58:02;9.30;99.90
37984;DHT22;64625;50.882;4.376;2023-04-25T02:00:28;9.30;99.90
37984;DHT22;64625;50.882;4.376;2023-04-25T02:02:58;9.30;99.90
37984;DHT22;64625;50.882;4.376;2023-04-25T02:05:24;9.30;99.90
37984;DHT22;64625;50.882;4.376;2023-04-25T02:07:49;9.30;99.90
37984;DHT22;64625;50.882;4.376;2023-04-25T02:10:15;9.30;99.90
37984;DHT22;64625;50.882;4.376;2023-04-25T02:12:41;9.20;99.90
37984;DHT22;64625;50.882;4.376;2023-04-25T02:15:07;9.20;99.90
37984;DHT22;64625;50.882;4.376;2023-04-25T02:17:33;9.20;99.90
37984;DHT22;64625;50.882;4.376;2023-04-25T02:19:59;9.20;99.90
37984;DHT22;64625;50.882;4.376;2023-04-25T02:22:25;9.20;99.90
37984;DHT22;64625;50.882;4.376;2023-04-25T02:24:52;9.20;99.90
37984;DHT22;64625;50.882;4.376;2023-04-25T02:27:18;9.20;99.90
37984;DHT22;64625;50.882;4.376;2023-04-25T02:29:44;9.20;99.90
37984;DHT22;64625;50.882;4.376;2023-04-25T02:32:10;9.10;99.90
37984;DHT22;64625;50.882;4.376;2023-04-25T02:34:36;9.10;99.90
37984;DHT22;64625;50.882;4.376;2023-04-25T02:37:02;9.20;99.90
37984;DHT22;64625;50.882;4.376;2023-04-25T02:39:28;9.10;99.90
37984;DHT22;64625;50.882;4.376;2023-04-25T02:41:54;9.10;99.90
37984;DHT22;64625;50.882;4.376;2023-04-25T02:44:20;9.10;99.90
37984;DHT22;64625;50.882;4.376;2023-04-25T02:46:45;9.10;99.90
37984;DHT22;64625;50.882;4.376;2023-04-25T02:49:11;9.10;99.90
37984;DHT22;64625;50.882;4.376;2023-04-25T02:51:37;9.10;99.90
37984;DHT22;64625;50.882;4.376;2023-04-25T02:54:03;9.10;99.90
37984;DHT22;64625;50.882;4.376;2023-04-25T02:56:29;9.10;99.90
37984;DHT22;64625;50.882;4.376;2023-04-25T02:58:55;9.10;99.90
37984;DHT22;64625;50.882;4.376;2023-04-25T03:01:20;9.00;99.90
37984;DHT22;64625;50.882;4.376;2023-04-25T03:03:46;9.00;99.90
37984;DHT22;64625;50.882;4.376;2023-04-25T03:06:12;9.00;99.90
37984;DHT22;64625;50.882;4.376;2023-04-25T03:08:38;9.00;99.90
37984;DHT22;64625;50.882;4.376;2023-04-25T03:11:03;9.00;99.90
37984;DHT22;64625;50.882;4.376;2023-04-25T03:13:29;9.00;99.90
37984;DHT22;64625;50.882;4.376;2023-04-25T03:15:55;9.00;99.90
37984;DHT22;64625;50.882;4.376;2023-04-25T03:18:21;9.00;99.90
37984;DHT22;64625;50.882;4.376;2023-04-25T03:20:47;9.00;99.90
37984;DHT22;64625;50.882;4.376;2023-04-25T03:23:12;9.00;99.90
37984;DHT22;64625;50.882;4.376;2023-04-25T03:25:38;8.90;99.90
37984;DHT22;64625;50.882;4.376;2023-04-25T03:28:04;8.90;99.90
37984;DHT22;64625;50.882;4.376;2023-04-25T03:30:30;8.90;99.90
37984;DHT22;64625;50.882;4.376;2023-04-25T03:32:57;8.90;99.90
37984;DHT22;64625;50.882;4.376;2023-04-25T03:35:22;8.90;99.90
37984;DHT22;64625;50.882;4.376;2023-04-25T03:37:50;8.80;99.90
37984;DHT22;64625;50.882;4.376;2023-04-25T03:40:16;8.80;99.90
37984;DHT22;64625;50.882;4.376;2023-04-25T03:42:42;8.80;99.90
37984;DHT22;64625;50.882;4.376;2023-04-25T03:45:08;8.80;99.90
37984;DHT22;64625;50.882;4.376;2023-04-25T03:47:34;8.80;99.90
37984;DHT22;64625;50.882;4.376;2023-04-25T03:49:59;8.80;99.90
37984;DHT22;64625;50.882;4.376;2023-04-25T03:52:27;8.80;99.90
37984;DHT22;64625;50.882;4.376;2023-04-25T03:54:52;8.80;99.90
37984;DHT22;64625;50.882;4.376;2023-04-25T03:57:18;8.70;99.90
37984;DHT22;64625;50.882;4.376;2023-04-25T03:59:44;8.80;99.90
37984;DHT22;64625;50.882;4.376;2023-04-25T04:02:10;8.80;99.90
37984;DHT22;64625;50.882;4.376;2023-04-25T04:04:36;8.70;99.90
37984;DHT22;64625;50.882;4.376;2023-04-25T04:07:03;8.70;99.90
37984;DHT22;64625;50.882;4.376;2023-04-25T04:09:29;8.70;99.90
37984;DHT22;64625;50.882;4.376;2023-04-25T04:11:55;8.70;99.90
37984;DHT22;64625;50.882;4.376;2023-04-25T04:14:21;8.70;99.90
37984;DHT22;64625;50.882;4.376;2023-04-25T04:16:46;8.70;99.90
37984;DHT22;64625;50.882;4.376;2023-04-25T04:19:12;8.70;99.90
37984;DHT22;64625;50.882;4.376;2023-04-25T04:21:38;8.70;99.90
37984;DHT22;64625;50.882;4.376;2023-04-25T04:24:04;8.70;99.90
37984;DHT22;64625;50.882;4.376;2023-04-25T04:26:32;8.70;99.90
37984;DHT22;64625;50.882;4.376;2023-04-25T04:28:58;8.70;99.90
37984;DHT22;64625;50.882;4.376;2023-04-25T04:31:24;8.70;99.90
37984;DHT22;64625;50.882;4.376;2023-04-25T04:33:50;8.70;99.90
37984;DHT22;64625;50.882;4.376;2023-04-25T04:36:16;8.70;99.90
37984;DHT22;64625;50.882;4.376;2023-04-25T04:38:45;8.70;99.90
37984;DHT22;64625;50.882;4.376;2023-04-25T04:41:11;8.70;99.90
37984;DHT22;64625;50.882;4.376;2023-04-25T04:43:37;8.60;99.90
37984;DHT22;64625;50.882;4.376;2023-04-25T04:46:05;8.60;99.90
37984;DHT22;64625;50.882;4.376;2023-04-25T04:48:33;8.60;99.90
37984;DHT22;64625;50.882;4.376;2023-04-25T04:50:59;8.60;99.90
37984;DHT22;64625;50.882;4.376;2023-04-25T04:53:27;8.60;99.90
37984;DHT22;64625;50.882;4.376;2023-04-25T04:55:53;8.60;99.90
37984;DHT22;64625;50.882;4.376;2023-04-25T04:58:18;8.60;99.90
37984;DHT22;64625;50.882;4.376;2023-04-25T05:00:45;8.60;99.90
37984;DHT22;64625;50.882;4.376;2023-04-25T05:03:10;8.60;99.90
37984;DHT22;64625;50.882;4.376;2023-04-25T05:05:37;8.50;99.90
37984;DHT22;64625;50.882;4.376;2023-04-25T05:08:06;8.50;99.90
37984;DHT22;64625;50.882;4.376;2023-04-25T05:10:33;8.50;99.90
37984;DHT22;64625;50.882;4.376;2023-04-25T05:12:59;8.50;99.90
37984;DHT22;64625;50.882;4.376;2023-04-25T05:15:25;8.50;99.90
37984;DHT22;64625;50.882;4.376;2023-04-25T05:17:50;8.50;99.90
37984;DHT22;64625;50.882;4.376;2023-04-25T05:20:16;8.50;99.90
37984;DHT22;64625;50.882;4.376;2023-04-25T05:22:44;8.50;99.90
37984;DHT22;64625;50.882;4.376;2023-04-25T05:25:10;8.50;99.90
37984;DHT22;64625;50.882;4.376;2023-04-25T05:27:36;8.50;99.90
37984;DHT22;64625;50.882;4.376;2023-04-25T05:30:02;8.50;99.90
37984;DHT22;64625;50.882;4.376;2023-04-25T05:32:28;8.50;99.90
37984;DHT22;64625;50.882;4.376;2023-04-25T05:34:54;8.50;99.90
37984;DHT22;64625;50.882;4.376;2023-04-25T05:37:20;8.50;99.90
37984;DHT22;64625;50.882;4.376;2023-04-25T05:39:46;8.50;99.90
37984;DHT22;64625;50.882;4.376;2023-04-25T05:42:12;8.50;99.90
37984;DHT22;64625;50.882;4.376;2023-04-25T05:44:41;8.50;99.90
37984;DHT22;64625;50.882;4.376;2023-04-25T05:47:06;8.50;99.90
37984;DHT22;64625;50.882;4.376;2023-04-25T05:49:33;8.50;99.90
37984;DHT22;64625;50.882;4.376;2023-04-25T05:51:59;8.50;99.90
37984;DHT22;64625;50.882;4.376;2023-04-25T05:54:25;8.50;99.90
37984;DHT22;64625;50.882;4.376;2023-04-25T05:56:51;8.50;99.90
37984;DHT22;64625;50.882;4.376;2023-04-25T05:59:17;8.50;99.90
37984;DHT22;64625;50.882;4.376;2023-04-25T06:01:43;8.50;99.90
37984;DHT22;64625;50.882;4.376;2023-04-25T06:04:09;8.50;99.90
37984;DHT22;64625;50.882;4.376;2023-04-25T06:06:35;8.50;99.90
37984;DHT22;64625;50.882;4.376;2023-04-25T06:09:00;8.50;99.90
37984;DHT22;64625;50.882;4.376;2023-04-25T06:11:26;8.50;99.90
37984;DHT22;64625;50.882;4.376;2023-04-25T06:13:52;8.50;99.90
37984;DHT22;64625;50.882;4.376;2023-04-25T06:16:18;8.50;99.90
37984;DHT22;64625;50.882;4.376;2023-04-25T06:18:44;8.60;99.90
37984;DHT22;64625;50.882;4.376;2023-04-25T06:21:10;8.60;99.90
37984;DHT22;64625;50.882;4.376;2023-04-25T06:23:36;8.60;99.90
37984;DHT22;64625;50.882;4.376;2023-04-25T06:26:01;8.60;99.90
37984;DHT22;64625;50.882;4.376;2023-04-25T06:28:27;8.60;99.90
37984;DHT22;64625;50.882;4.376;2023-04-25T06:30:53;8.70;99.90
37984;DHT22;64625;50.882;4.376;2023-04-25T06:33:19;8.70;99.90
37984;DHT22;64625;50.882;4.376;2023-04-25T06:35:46;8.70;99.90
37984;DHT22;64625;50.882;4.376;2023-04-25T06:38:11;8.70;99.90
37984;DHT22;64625;50.882;4.376;2023-04-25T06:40:37;8.80;99.90
37984;DHT22;64625;50.882;4.376;2023-04-25T06:43:04;8.80;99.90
37984;DHT22;64625;50.882;4.376;2023-04-25T06:45:30;8.80;99.90
37984;DHT22;64625;50.882;4.376;2023-04-25T06:47:56;8.90;99.90
37984;DHT22;64625;50.882;4.376;2023-04-25T06:50:22;8.90;99.90
37984;DHT22;64625;50.882;4.376;2023-04-25T06:52:48;9.00;99.90
37984;DHT22;64625;50.882;4.376;2023-04-25T06:55:13;9.00;99.90
37984;DHT22;64625;50.882;4.376;2023-04-25T06:57:39;9.00;99.90
37984;DHT22;64625;50.882;4.376;2023-04-25T07:00:06;9.00;99.90
37984;DHT22;64625;50.882;4.376;2023-04-25T07:02:35;9.10;99.90
37984;DHT22;64625;50.882;4.376;2023-04-25T07:05:02;9.10;99.90
37984;DHT22;64625;50.882;4.376;2023-04-25T07:07:30;9.10;99.90
37984;DHT22;64625;50.882;4.376;2023-04-25T07:09:56;9.10;99.90
37984;DHT22;64625;50.882;4.376;2023-04-25T07:12:22;9.20;99.90
37984;DHT22;64625;50.882;4.376;2023-04-25T07:14:48;9.20;99.90
37984;DHT22;64625;50.882;4.376;2023-04-25T07:17:13;9.20;99.90
37984;DHT22;64625;50.882;4.376;2023-04-25T07:19:39;9.20;99.90
37984;DHT22;64625;50.882;4.376;2023-04-25T07:22:06;9.20;99.90
37984;DHT22;64625;50.882;4.376;2023-04-25T07:24:32;9.30;99.90
37984;DHT22;64625;50.882;4.376;2023-04-25T07:26:58;9.30;99.90
37984;DHT22;64625;50.882;4.376;2023-04-25T07:29:24;9.40;99.90
37984;DHT22;64625;50.882;4.376;2023-04-25T07:31:50;9.40;99.90
37984;DHT22;64625;50.882;4.376;2023-04-25T07:34:16;9.40;99.90
37984;DHT22;64625;50.882;4.376;2023-04-25T07:36:42;9.50;99.90
37984;DHT22;64625;50.882;4.376;2023-04-25T07:39:07;9.50;99.90
37984;DHT22;64625;50.882;4.376;2023-04-25T07:41:36;9.50;99.90
37984;DHT22;64625;50.882;4.376;2023-04-25T07:44:02;9.50;99.90
37984;DHT22;64625;50.882;4.376;2023-04-25T07:46:27;9.60;99.90
37984;DHT22;64625;50.882;4.376;2023-04-25T07:48:53;9.60;99.90
37984;DHT22;64625;50.882;4.376;2023-04-25T07:51:19;9.70;99.90
37984;DHT22;64625;50.882;4.376;2023-04-25T07:53:46;9.80;99.90
37984;DHT22;64625;50.882;4.376;2023-04-25T07:56:12;9.80;99.90
37984;DHT22;64625;50.882;4.376;2023-04-25T07:58:37;9.90;99.90
37984;DHT22;64625;50.882;4.376;2023-04-25T08:01:03;9.90;99.90
37984;DHT22;64625;50.882;4.376;2023-04-25T08:03:29;10.00;99.90
37984;DHT22;64625;50.882;4.376;2023-04-25T08:05:55;10.10;99.90
37984;DHT22;64625;50.882;4.376;2023-04-25T08:08:21;10.10;99.90
37984;DHT22;64625;50.882;4.376;2023-04-25T08:10:47;10.20;99.90
37984;DHT22;64625;50.882;4.376;2023-04-25T08:13:13;10.30;99.90
37984;DHT22;64625;50.882;4.376;2023-04-25T08:15:39;10.40;99.90
37984;DHT22;64625;50.882;4.376;2023-04-25T08:18:05;10.40;99.90
37984;DHT22;64625;50.882;4.376;2023-04-25T08:20:31;10.50;99.90
37984;DHT22;64625;50.882;4.376;2023-04-25T08:22:57;10.60;99.90
37984;DHT22;64625;50.882;4.376;2023-04-25T08:25:23;10.70;99.90
37984;DHT22;64625;50.882;4.376;2023-04-25T08:27:48;10.70;99.90
37984;DHT22;64625;50.882;4.376;2023-04-25T08:30:14;10.80;99.90
37984;DHT22;64625;50.882;4.376;2023-04-25T08:32:40;10.80;99.90
37984;DHT22;64625;50.882;4.376;2023-04-25T08:35:06;10.90;99.90
37984;DHT22;64625;50.882;4.376;2023-04-25T08:37:32;10.90;99.90
37984;DHT22;64625;50.882;4.376;2023-04-25T08:39:58;11.00;99.90
37984;DHT22;64625;50.882;4.376;2023-04-25T08:42:24;11.00;99.90
37984;DHT22;64625;50.882;4.376;2023-04-25T08:44:53;11.10;99.90
37984;DHT22;64625;50.882;4.376;2023-04-25T08:47:22;11.20;99.90
37984;DHT22;64625;50.882;4.376;2023-04-25T08:49:49;11.30;99.90
37984;DHT22;64625;50.882;4.376;2023-04-25T08:52:22;11.30;99.90
37984;DHT22;64625;50.882;4.376;2023-04-25T08:54:48;11.30;99.90
37984;DHT22;64625;50.882;4.376;2023-04-25T08:57:17;11.40;99.90
37984;DHT22;64625;50.882;4.376;2023-04-25T08:59:45;11.40;99.90
37984;DHT22;64625;50.882;4.376;2023-04-25T09:02:12;11.50;99.90
37984;DHT22;64625;50.882;4.376;2023-04-25T09:04:44;11.50;99.90
37984;DHT22;64625;50.882;4.376;2023-04-25T09:07:10;11.60;99.90
37984;DHT22;64625;50.882;4.376;2023-04-25T09:09:36;11.70;99.90
37984;DHT22;64625;50.882;4.376;2023-04-25T09:12:01;11.70;99.90
37984;DHT22;64625;50.882;4.376;2023-04-25T09:14:27;11.80;99.90
37984;DHT22;64625;50.882;4.376;2023-04-25T09:19:27;11.80;99.90
37984;DHT22;64625;50.882;4.376;2023-04-25T09:22:00;11.80;99.90
37984;DHT22;64625;50.882;4.376;2023-04-25T09:24:40;11.80;99.90
37984;DHT22;64625;50.882;4.376;2023-04-25T09:27:11;11.80;99.90
37984;DHT22;64625;50.882;4.376;2023-04-25T09:29:39;11.90;99.90
37984;DHT22;64625;50.882;4.376;2023-04-25T09:32:22;11.90;99.90
37984;DHT22;64625;50.882;4.376;2023-04-25T09:34:53;11.90;99.90
37984;DHT22;64625;50.882;4.376;2023-04-25T09:37:26;11.90;99.90
37984;DHT22;64625;50.882;4.376;2023-04-25T09:40:15;11.90;99.90
37984;DHT22;64625;50.882;4.376;2023-04-25T09:42:43;11.90;99.90
37984;DHT22;64625;50.882;4.376;2023-04-25T09:45:12;11.90;99.90
37984;DHT22;64625;50.882;4.376;2023-04-25T09:47:38;11.90;99.90
37984;DHT22;64625;50.882;4.376;2023-04-25T09:50:14;11.90;99.90
37984;DHT22;64625;50.882;4.376;2023-04-25T09:52:41;11.90;99.90
37984;DHT22;64625;50.882;4.376;2023-04-25T09:55:11;12.00;99.90
37984;DHT22;64625;50.882;4.376;2023-04-25T09:57:37;12.00;99.90
37984;DHT22;64625;50.882;4.376;2023-04-25T10:00:07;12.10;99.90
37984;DHT22;64625;50.882;4.376;2023-04-25T10:02:43;12.10;99.90
37984;DHT22;64625;50.882;4.376;2023-04-25T10:05:35;12.20;99.90
37984;DHT22;64625;50.882;4.376;2023-04-25T10:08:03;12.30;99.90
37984;DHT22;64625;50.882;4.376;2023-04-25T10:10:30;12.30;99.90
37984;DHT22;64625;50.882;4.376;2023-04-25T10:13:04;12.30;99.90
37984;DHT22;64625;50.882;4.376;2023-04-25T10:15:33;12.30;99.90
37984;DHT22;64625;50.882;4.376;2023-04-25T10:18:01;12.40;99.90
37984;DHT22;64625;50.882;4.376;2023-04-25T10:20:27;12.40;99.90
37984;DHT22;64625;50.882;4.376;2023-04-25T10:22:54;12.50;99.90
37984;DHT22;64625;50.882;4.376;2023-04-25T10:25:22;12.50;99.90
37984;DHT22;64625;50.882;4.376;2023-04-25T10:27:53;12.60;99.90
37984;DHT22;64625;50.882;4.376;2023-04-25T10:30:19;12.70;99.90
37984;DHT22;64625;50.882;4.376;2023-04-25T10:32:47;12.80;99.90
37984;DHT22;64625;50.882;4.376;2023-04-25T10:35:16;12.80;99.90
37984;DHT22;64625;50.882;4.376;2023-04-25T10:38:05;12.90;99.90
37984;DHT22;64625;50.882;4.376;2023-04-25T10:40:32;13.00;99.90
37984;DHT22;64625;50.882;4.376;2023-04-25T10:45:57;13.10;99.90
37984;DHT22;64625;50.882;4.376;2023-04-25T10:48:30;13.20;99.90
37984;DHT22;64625;50.882;4.376;2023-04-25T10:54:04;13.30;99.60
37984;DHT22;64625;50.882;4.376;2023-04-25T10:56:37;13.30;99.90
37984;DHT22;64625;50.882;4.376;2023-04-25T10:59:16;13.40;99.90
37984;DHT22;64625;50.882;4.376;2023-04-25T11:01:44;13.40;99.90
37984;DHT22;64625;50.882;4.376;2023-04-25T11:04:40;13.40;99.90
37984;DHT22;64625;50.882;4.376;2023-04-25T11:09:45;13.40;99.90
37984;DHT22;64625;50.882;4.376;2023-04-25T11:12:11;13.40;99.90
37984;DHT22;64625;50.882;4.376;2023-04-25T11:14:38;13.40;99.90
37984;DHT22;64625;50.882;4.376;2023-04-25T11:17:05;13.40;99.90
37984;DHT22;64625;50.882;4.376;2023-04-25T11:19:31;13.40;99.90
37984;DHT22;64625;50.882;4.376;2023-04-25T11:22:01;13.40;99.90
37984;DHT22;64625;50.882;4.376;2023-04-25T11:24:31;13.40;99.90
37984;DHT22;64625;50.882;4.376;2023-04-25T11:26:59;13.50;99.90
37984;DHT22;64625;50.882;4.376;2023-04-25T11:29:28;13.50;99.90
37984;DHT22;64625;50.882;4.376;2023-04-25T11:31:55;13.60;99.90
37984;DHT22;64625;50.882;4.376;2023-04-25T11:34:30;13.60;99.90
37984;DHT22;64625;50.882;4.376;2023-04-25T11:36:59;13.60;99.90
37984;DHT22;64625;50.882;4.376;2023-04-25T11:39:27;13.50;99.90
37984;DHT22;64625;50.882;4.376;2023-04-25T11:41:53;13.60;99.90
37984;DHT22;64625;50.882;4.376;2023-04-25T11:44:20;13.60;99.90
37984;DHT22;64625;50.882;4.376;2023-04-25T11:46:47;13.70;99.90
37984;DHT22;64625;50.882;4.376;2023-04-25T11:49:13;13.70;99.90
37984;DHT22;64625;50.882;4.376;2023-04-25T11:51:44;13.80;99.90
37984;DHT22;64625;50.882;4.376;2023-04-25T11:54:11;13.80;99.70
37984;DHT22;64625;50.882;4.376;2023-04-25T11:56:40;13.90;99.30
37984;DHT22;64625;50.882;4.376;2023-04-25T11:59:07;13.90;98.60
37984;DHT22;64625;50.882;4.376;2023-04-25T12:01:34;14.00;98.80
37984;DHT22;64625;50.882;4.376;2023-04-25T12:04:16;14.10;97.90
37984;DHT22;64625;50.882;4.376;2023-04-25T12:06:43;14.20;97.70
37984;DHT22;64625;50.882;4.376;2023-04-25T12:09:11;14.20;97.60
37984;DHT22;64625;50.882;4.376;2023-04-25T12:11:45;14.20;97.60
37984;DHT22;64625;50.882;4.376;2023-04-25T12:14:34;14.30;96.90
37984;DHT22;64625;50.882;4.376;2023-04-25T12:17:01;14.30;96.30
37984;DHT22;64625;50.882;4.376;2023-04-25T12:19:36;14.40;96.20
37984;DHT22;64625;50.882;4.376;2023-04-25T12:22:03;14.40;95.20
37984;DHT22;64625;50.882;4.376;2023-04-25T12:24:29;14.40;94.90
37984;DHT22;64625;50.882;4.376;2023-04-25T12:27:05;14.50;94.50
37984;DHT22;64625;50.882;4.376;2023-04-25T12:29:33;14.50;93.60
37984;DHT22;64625;50.882;4.376;2023-04-25T12:32:00;14.50;92.80
37984;DHT22;64625;50.882;4.376;2023-04-25T12:34:27;14.50;92.70
37984;DHT22;64625;50.882;4.376;2023-04-25T12:36:54;14.60;92.40
37984;DHT22;64625;50.882;4.376;2023-04-25T12:39:24;14.60;91.60
37984;DHT22;64625;50.882;4.376;2023-04-25T12:41:56;14.60;91.20
37984;DHT22;64625;50.882;4.376;2023-04-25T12:44:22;14.70;90.70
37984;DHT22;64625;50.882;4.376;2023-04-25T12:46:48;14.80;90.60
37984;DHT22;64625;50.882;4.376;2023-04-25T12:49:14;14.80;90.30
37984;DHT22;64625;50.882;4.376;2023-04-25T12:51:40;14.90;89.40
37984;DHT22;64625;50.882;4.376;2023-04-25T12:54:07;14.90;88.50
37984;DHT22;64625;50.882;4.376;2023-04-25T12:56:34;14.90;87.30
37984;DHT22;64625;50.882;4.376;2023-04-25T12:59:00;15.00;89.20
37984;DHT22;64625;50.882;4.376;2023-04-25T13:01:26;14.90;89.60
37984;DHT22;64625;50.882;4.376;2023-04-25T13:03:52;14.90;89.80
37984;DHT22;64625;50.882;4.376;2023-04-25T13:06:19;14.90;90.00
37984;DHT22;64625;50.882;4.376;2023-04-25T13:08:45;14.80;89.40
37984;DHT22;64625;50.882;4.376;2023-04-25T13:11:11;14.80;90.30
37984;DHT22;64625;50.882;4.376;2023-04-25T13:13:37;14.70;89.90
37984;DHT22;64625;50.882;4.376;2023-04-25T13:16:04;14.80;90.00
37984;DHT22;64625;50.882;4.376;2023-04-25T13:18:33;14.70;87.40
37984;DHT22;64625;50.882;4.376;2023-04-25T13:20:59;14.70;86.00
37984;DHT22;64625;50.882;4.376;2023-04-25T13:23:27;14.70;86.80
37984;DHT22;64625;50.882;4.376;2023-04-25T13:25:53;14.70;87.60
37984;DHT22;64625;50.882;4.376;2023-04-25T13:28:20;14.70;87.20
37984;DHT22;64625;50.882;4.376;2023-04-25T13:30:47;14.80;87.20
37984;DHT22;64625;50.882;4.376;2023-04-25T13:33:14;14.90;86.70
37984;DHT22;64625;50.882;4.376;2023-04-25T13:35:40;15.00;85.80
37984;DHT22;64625;50.882;4.376;2023-04-25T13:38:06;15.10;84.30
37984;DHT22;64625;50.882;4.376;2023-04-25T13:40:32;15.10;83.40
37984;DHT22;64625;50.882;4.376;2023-04-25T13:42:58;15.20;80.90
37984;DHT22;64625;50.882;4.376;2023-04-25T13:45:24;15.20;80.10
37984;DHT22;64625;50.882;4.376;2023-04-25T13:47:50;15.20;79.40
37984;DHT22;64625;50.882;4.376;2023-04-25T13:50:16;15.20;79.00
37984;DHT22;64625;50.882;4.376;2023-04-25T13:52:42;15.20;79.80
37984;DHT22;64625;50.882;4.376;2023-04-25T13:55:43;15.30;81.00
37984;DHT22;64625;50.882;4.376;2023-04-25T13:58:09;15.40;79.00
37984;DHT22;64625;50.882;4.376;2023-04-25T14:00:36;15.50;82.20
37984;DHT22;64625;50.882;4.376;2023-04-25T14:03:07;15.60;82.90
37984;DHT22;64625;50.882;4.376;2023-04-25T14:05:34;15.80;83.80
37984;DHT22;64625;50.882;4.376;2023-04-25T14:08:07;15.90;83.90
37984;DHT22;64625;50.882;4.376;2023-04-25T14:10:34;16.00;82.90
37984;DHT22;64625;50.882;4.376;2023-04-25T14:13:01;16.10;82.70
37984;DHT22;64625;50.882;4.376;2023-04-25T14:15:29;16.20;81.50
37984;DHT22;64625;50.882;4.376;2023-04-25T14:17:55;16.30;82.20
37984;DHT22;64625;50.882;4.376;2023-04-25T14:20:21;16.50;82.10
37984;DHT22;64625;50.882;4.376;2023-04-25T14:22:49;16.70;83.40
37984;DHT22;64625;50.882;4.376;2023-04-25T14:25:15;16.90;82.40
37984;DHT22;64625;50.882;4.376;2023-04-25T14:27:41;17.10;80.30
37984;DHT22;64625;50.882;4.376;2023-04-25T14:30:07;17.20;80.70
37984;DHT22;64625;50.882;4.376;2023-04-25T14:32:34;17.30;79.50
37984;DHT22;64625;50.882;4.376;2023-04-25T14:35:00;17.50;79.20
37984;DHT22;64625;50.882;4.376;2023-04-25T14:37:26;17.70;78.20
37984;DHT22;64625;50.882;4.376;2023-04-25T14:39:52;17.90;78.60
37984;DHT22;64625;50.882;4.376;2023-04-25T14:42:18;18.10;78.00
37984;DHT22;64625;50.882;4.376;2023-04-25T14:44:43;18.10;75.90
37984;DHT22;64625;50.882;4.376;2023-04-25T14:47:09;18.10;74.90
37984;DHT22;64625;50.882;4.376;2023-04-25T14:49:35;18.00;73.40
37984;DHT22;64625;50.882;4.376;2023-04-25T14:52:01;18.00;74.10
37984;DHT22;64625;50.882;4.376;2023-04-25T14:54:27;18.00;74.60
37984;DHT22;64625;50.882;4.376;2023-04-25T14:56:53;18.10;74.60
37984;DHT22;64625;50.882;4.376;2023-04-25T14:59:19;18.20;75.00
37984;DHT22;64625;50.882;4.376;2023-04-25T15:01:46;18.40;75.40
37984;DHT22;64625;50.882;4.376;2023-04-25T15:04:12;18.40;72.90
37984;DHT22;64625;50.882;4.376;2023-04-25T15:06:39;18.50;72.20
37984;DHT22;64625;50.882;4.376;2023-04-25T15:09:05;18.60;72.50
37984;DHT22;64625;50.882;4.376;2023-04-25T15:11:31;18.60;69.90
37984;DHT22;64625;50.882;4.376;2023-04-25T15:13:58;18.60;69.10
37984;DHT22;64625;50.882;4.376;2023-04-25T15:16:25;18.60;69.50
37984;DHT22;64625;50.882;4.376;2023-04-25T15:18:50;18.70;70.10
37984;DHT22;64625;50.882;4.376;2023-04-25T15:21:16;18.70;69.00
37984;DHT22;64625;50.882;4.376;2023-04-25T15:23:42;18.70;66.20
37984;DHT22;64625;50.882;4.376;2023-04-25T15:26:08;18.60;65.40
37984;DHT22;64625;50.882;4.376;2023-04-25T15:28:34;18.60;65.60
37984;DHT22;64625;50.882;4.376;2023-04-25T15:31:00;18.50;64.70
37984;DHT22;64625;50.882;4.376;2023-04-25T15:33:26;18.50;64.30
37984;DHT22;64625;50.882;4.376;2023-04-25T15:35:52;18.60;64.90
37984;DHT22;64625;50.882;4.376;2023-04-25T15:38:18;18.60;64.90
37984;DHT22;64625;50.882;4.376;2023-04-25T15:40:44;18.70;66.00
37984;DHT22;64625;50.882;4.376;2023-04-25T15:43:10;18.80;65.20
37984;DHT22;64625;50.882;4.376;2023-04-25T15:45:40;18.70;64.50
37984;DHT22;64625;50.882;4.376;2023-04-25T15:48:07;18.70;64.10
37984;DHT22;64625;50.882;4.376;2023-04-25T15:50:33;18.60;63.20
37984;DHT22;64625;50.882;4.376;2023-04-25T15:52:58;18.60;63.00
37984;DHT22;64625;50.882;4.376;2023-04-25T15:55:25;18.50;63.40
37984;DHT22;64625;50.882;4.376;2023-04-25T15:57:53;18.50;64.20
37984;DHT22;64625;50.882;4.376;2023-04-25T16:00:19;18.60;64.40
37984;DHT22;64625;50.882;4.376;2023-04-25T16:02:46;18.60;64.90
37984;DHT22;64625;50.882;4.376;2023-04-25T16:05:13;18.60;63.40
37984;DHT22;64625;50.882;4.376;2023-04-25T16:07:40;18.60;63.20
37984;DHT22;64625;50.882;4.376;2023-04-25T16:10:07;18.60;63.30
37984;DHT22;64625;50.882;4.376;2023-04-25T16:12:34;18.60;62.80
37984;DHT22;64625;50.882;4.376;2023-04-25T16:15:03;18.50;62.30
37984;DHT22;64625;50.882;4.376;2023-04-25T16:17:29;18.30;61.50
37984;DHT22;64625;50.882;4.376;2023-04-25T16:19:58;18.10;60.60
37984;DHT22;64625;50.882;4.376;2023-04-25T16:22:26;17.90;60.10
37984;DHT22;64625;50.882;4.376;2023-04-25T16:24:52;17.70;61.10
37984;DHT22;64625;50.882;4.376;2023-04-25T16:27:18;17.60;61.60
37984;DHT22;64625;50.882;4.376;2023-04-25T16:29:43;17.50;61.70
37984;DHT22;64625;50.882;4.376;2023-04-25T16:32:10;17.30;61.60
37984;DHT22;64625;50.882;4.376;2023-04-25T16:34:35;17.10;61.90
37984;DHT22;64625;50.882;4.376;2023-04-25T16:37:01;16.90;61.50
37984;DHT22;64625;50.882;4.376;2023-04-25T16:39:27;16.80;62.30
37984;DHT22;64625;50.882;4.376;2023-04-25T16:41:53;16.60;62.70
37984;DHT22;64625;50.882;4.376;2023-04-25T16:44:20;16.40;62.40
37984;DHT22;64625;50.882;4.376;2023-04-25T16:46:46;16.30;62.40
37984;DHT22;64625;50.882;4.376;2023-04-25T16:49:12;16.10;62.80
37984;DHT22;64625;50.882;4.376;2023-04-25T16:51:38;15.90;63.50
37984;DHT22;64625;50.882;4.376;2023-04-25T16:54:05;15.80;64.10
37984;DHT22;64625;50.882;4.376;2023-04-25T16:56:31;15.60;64.10
37984;DHT22;64625;50.882;4.376;2023-04-25T16:58:57;15.50;65.40
37984;DHT22;64625;50.882;4.376;2023-04-25T17:01:23;15.40;65.00